createdAt,value
2018-02-25T00:00:25.898Z,47.32
2018-02-25T00:02:53.592Z,46.97
2018-02-25T00:05:21.279Z,46.71
2018-02-25T00:07:48.976Z,46.94
2018-02-25T00:10:16.662Z,46.58
2018-02-25T00:12:44.366Z,46.89
2018-02-25T00:15:12.034Z,47.15
2018-02-25T00:17:39.731Z,47.49
2018-02-25T00:20:07.521Z,47.52
2018-02-25T00:22:35.210Z,47.48
2018-02-25T00:25:02.877Z,47.32
2018-02-25T00:27:30.555Z,47.12
2018-02-25T00:29:58.263Z,47.80
2018-02-25T00:32:25.953Z,47.59
2018-02-25T00:34:53.791Z,47.67
2018-02-25T00:37:21.490Z,47.41
2018-02-25T00:39:49.150Z,47.63
2018-02-25T00:42:16.856Z,48.04
2018-02-25T00:44:44.736Z,47.80
2018-02-25T00:47:12.444Z,47.82
2018-02-25T00:49:40.104Z,47.88
2018-02-25T00:52:07.810Z,48.13
2018-02-25T00:54:35.473Z,47.95
2018-02-25T00:57:03.177Z,48.26
2018-02-25T00:59:30.858Z,48.70
2018-02-25T01:01:58.559Z,48.41
2018-02-25T01:04:26.225Z,48.28
2018-02-25T01:06:53.920Z,48.66
2018-02-25T01:09:21.582Z,49.11
2018-02-25T01:11:49.273Z,48.31
2018-02-25T01:14:16.942Z,48.67
2018-02-25T01:16:44.643Z,48.77
2018-02-25T01:19:12.358Z,48.91
2018-02-25T01:21:40.039Z,49.00
2018-02-25T01:24:07.685Z,49.15
2018-02-25T01:26:35.385Z,49.10
2018-02-25T01:29:03.458Z,49.55
2018-02-25T01:31:31.194Z,49.57
2018-02-25T01:33:58.869Z,49.49
2018-02-25T01:36:26.574Z,49.43
2018-02-25T01:38:54.408Z,48.97
2018-02-25T01:41:22.111Z,49.49
2018-02-25T01:43:49.767Z,49.64
2018-02-25T01:46:17.554Z,49.52
2018-02-25T01:48:45.220Z,49.38
2018-02-25T01:51:13.019Z,49.65
2018-02-25T01:53:40.714Z,49.72
2018-02-25T01:56:08.506Z,49.87
2018-02-25T01:58:36.218Z,49.58
2018-02-25T02:01:03.901Z,49.36
2018-02-25T02:03:31.603Z,48.92
2018-02-25T02:05:59.271Z,49.75
2018-02-25T02:08:26.982Z,49.76
2018-02-25T02:10:54.650Z,50.16
2018-02-25T02:13:22.349Z,49.91
2018-02-25T02:15:50.013Z,49.39
2018-02-25T02:18:17.722Z,49.55
2018-02-25T02:20:45.386Z,50.10
2018-02-25T02:23:13.086Z,50.44
2018-02-25T02:25:40.907Z,50.42
2018-02-25T02:28:08.625Z,50.37
2018-02-25T02:30:36.283Z,50.10
2018-02-25T02:33:03.948Z,49.92
2018-02-25T02:35:31.660Z,50.09
2018-02-25T02:37:59.383Z,49.70
2018-02-25T02:40:27.082Z,50.02
2018-02-25T02:42:54.754Z,50.36
2018-02-25T02:45:22.457Z,50.68
2018-02-25T02:47:50.302Z,50.26
2018-02-25T02:50:18.060Z,49.91
2018-02-25T02:52:45.730Z,49.72
2018-02-25T02:55:13.571Z,49.14
2018-02-25T02:57:41.267Z,48.92
2018-02-25T03:00:08.922Z,49.51
2018-02-25T03:02:36.635Z,49.90
2018-02-25T03:05:04.312Z,50.12
2018-02-25T03:07:32.126Z,50.69
2018-02-25T03:09:59.787Z,50.30
2018-02-25T03:12:27.535Z,50.16
2018-02-25T03:14:55.237Z,50.35
2018-02-25T03:17:22.935Z,50.43
2018-02-25T03:19:50.599Z,50.11
2018-02-25T03:22:18.311Z,49.86
2018-02-25T03:24:45.974Z,49.89
2018-02-25T03:27:13.679Z,49.65
2018-02-25T03:29:41.335Z,49.26
2018-02-25T03:32:09.043Z,49.21
2018-02-25T03:34:36.830Z,49.39
2018-02-25T03:37:04.718Z,50.28
2018-02-25T03:39:32.388Z,50.43
2018-02-25T03:42:00.127Z,50.26
2018-02-25T03:44:27.817Z,50.35
2018-02-25T03:46:55.475Z,49.90
2018-02-25T03:49:23.167Z,49.99
2018-02-25T03:51:50.882Z,50.16
2018-02-25T03:54:18.658Z,50.18
2018-02-25T03:56:46.331Z,49.85
2018-02-25T03:59:14.055Z,49.57
2018-02-25T04:01:41.742Z,49.66
2018-02-25T04:04:09.430Z,49.62
2018-02-25T04:06:37.091Z,49.61
2018-02-25T04:09:05.526Z,49.67
2018-02-25T04:11:33.189Z,49.97
2018-02-25T04:14:00.913Z,50.26
2018-02-25T04:16:28.582Z,50.67
2018-02-25T04:18:56.294Z,50.46
2018-02-25T04:21:23.951Z,50.24
2018-02-25T04:23:51.618Z,50.62
2018-02-25T04:26:19.331Z,50.68
2018-02-25T04:28:46.998Z,50.84
2018-02-25T04:31:14.702Z,50.56
2018-02-25T04:33:42.438Z,50.91
2018-02-25T04:36:10.153Z,50.47
2018-02-25T04:38:37.818Z,50.04
2018-02-25T04:41:05.526Z,50.15
2018-02-25T04:43:33.194Z,49.82
2018-02-25T04:46:00.997Z,49.81
2018-02-25T04:48:28.671Z,49.71
2018-02-25T04:50:56.410Z,49.66
2018-02-25T04:53:24.074Z,49.06
2018-02-25T04:55:51.739Z,49.23
2018-02-25T04:58:19.595Z,48.87
2018-02-25T05:00:47.265Z,49.23
2018-02-25T05:03:14.962Z,49.64
2018-02-25T05:05:42.639Z,49.39
2018-02-25T05:08:10.326Z,48.31
2018-02-25T05:10:38.002Z,48.60
2018-02-25T05:13:05.693Z,48.61
2018-02-25T05:15:33.370Z,49.02
2018-02-25T05:18:01.122Z,49.25
2018-02-25T05:20:28.787Z,49.28
2018-02-25T05:22:56.486Z,48.97
2018-02-25T05:25:24.155Z,49.00
2018-02-25T05:27:51.882Z,48.65
2018-02-25T05:32:53.670Z,48.86
2018-02-25T05:35:21.334Z,49.43
2018-02-25T05:37:49.006Z,50.04
2018-02-25T05:40:16.702Z,50.14
2018-02-25T05:42:44.369Z,49.95
2018-02-25T05:45:12.091Z,50.04
2018-02-25T05:47:39.742Z,49.91
2018-02-25T05:50:07.439Z,49.71
2018-02-25T05:52:35.166Z,50.53
2018-02-25T05:55:02.882Z,50.74
2018-02-25T05:57:30.585Z,50.70
2018-02-25T05:59:58.210Z,50.56
2018-02-25T06:02:25.907Z,50.96
2018-02-25T06:04:53.562Z,50.76
2018-02-25T06:07:21.279Z,51.57
2018-02-25T06:09:48.951Z,51.32
2018-02-25T06:12:16.635Z,50.86
2018-02-25T06:14:44.342Z,50.82
2018-02-25T06:17:12.054Z,51.05
2018-02-25T06:19:39.725Z,51.27
2018-02-25T06:22:07.425Z,50.78
2018-02-25T06:24:35.122Z,51.07
2018-02-25T06:27:02.790Z,50.92
2018-02-25T06:29:30.513Z,51.57
2018-02-25T06:31:58.217Z,51.51
2018-02-25T06:34:25.922Z,51.56
2018-02-25T06:36:53.598Z,51.87
2018-02-25T06:39:21.294Z,51.45
2018-02-25T06:41:48.978Z,51.66
2018-02-25T06:44:16.689Z,51.86
2018-02-25T06:46:44.355Z,51.72
2018-02-25T06:49:12.042Z,51.79
2018-02-25T06:51:39.737Z,51.46
2018-02-25T06:54:07.400Z,51.42
2018-02-25T06:56:35.090Z,51.36
2018-02-25T06:59:02.783Z,51.64
2018-02-25T07:01:30.499Z,51.06
2018-02-25T07:03:58.162Z,51.31
2018-02-25T07:06:25.961Z,50.82
2018-02-25T07:08:53.622Z,50.67
2018-02-25T07:11:21.338Z,50.89
2018-02-25T07:13:49.024Z,50.62
2018-02-25T07:16:16.751Z,50.69
2018-02-25T07:18:44.422Z,50.29
2018-02-25T07:21:12.082Z,50.45
2018-02-25T07:23:39.994Z,50.78
2018-02-25T07:26:07.656Z,50.53
2018-02-25T07:28:35.350Z,50.73
2018-02-25T07:31:03.006Z,50.59
2018-02-25T07:33:30.714Z,51.02
2018-02-25T07:35:58.395Z,51.46
2018-02-25T07:38:26.118Z,51.03
2018-02-25T07:40:53.787Z,51.40
2018-02-25T07:43:21.494Z,50.48
2018-02-25T07:45:49.165Z,50.84
2018-02-25T07:48:17.026Z,51.25
2018-02-25T07:50:44.689Z,50.74
2018-02-25T07:53:12.400Z,50.62
2018-02-25T07:55:40.072Z,51.28
2018-02-25T07:58:07.769Z,51.34
2018-02-25T08:00:35.495Z,51.09
2018-02-25T08:03:03.218Z,50.60
2018-02-25T08:05:30.907Z,50.39
2018-02-25T08:07:58.580Z,50.31
2018-02-25T08:10:26.398Z,50.27
2018-02-25T08:12:54.065Z,50.42
2018-02-25T08:15:21.859Z,50.55
2018-02-25T08:17:49.531Z,50.89
2018-02-25T08:20:17.234Z,49.97
2018-02-25T08:22:44.915Z,50.19
2018-02-25T08:25:12.685Z,50.22
2018-02-25T08:27:40.399Z,49.54
2018-02-25T08:30:08.058Z,48.77
2018-02-25T08:32:35.772Z,48.95
2018-02-25T08:35:03.428Z,48.61
2018-02-25T08:37:31.123Z,49.67
2018-02-25T08:39:58.803Z,49.07
2018-02-25T08:42:26.504Z,48.67
2018-02-25T08:44:54.249Z,47.76
2018-02-25T08:47:21.947Z,47.02
2018-02-25T08:49:50.299Z,46.94
2018-02-25T08:52:19.018Z,47.10
2018-02-25T08:54:46.692Z,45.93
2018-02-25T08:57:14.386Z,45.96
2018-02-25T08:59:42.043Z,45.64
2018-02-25T09:02:09.738Z,45.09
2018-02-25T09:04:37.408Z,44.76
2018-02-25T09:07:05.114Z,45.14
2018-02-25T09:09:32.846Z,45.07
2018-02-25T09:12:00.544Z,44.94
2018-02-25T09:14:28.211Z,43.73
2018-02-25T09:16:55.908Z,43.25
2018-02-25T09:19:23.570Z,43.06
2018-02-25T09:21:51.276Z,42.96
2018-02-25T09:24:18.959Z,42.90
2018-02-25T09:26:46.642Z,42.96
2018-02-25T09:29:14.319Z,42.21
2018-02-25T09:31:42.050Z,42.37
2018-02-25T09:34:09.730Z,41.81
2018-02-25T09:36:37.422Z,41.77
2018-02-25T09:39:05.238Z,42.46
2018-02-25T09:41:33.032Z,42.04
2018-02-25T09:44:00.690Z,41.14
2018-02-25T09:46:28.386Z,41.03
2018-02-25T09:48:56.054Z,40.49
2018-02-25T09:51:23.752Z,40.52
2018-02-25T09:53:51.421Z,39.99
2018-02-25T09:56:19.177Z,39.51
2018-02-25T09:58:46.841Z,38.81
2018-02-25T10:01:14.562Z,38.89
2018-02-25T10:03:42.232Z,38.11
2018-02-25T10:06:09.918Z,38.28
2018-02-25T10:08:37.579Z,37.99
2018-02-25T10:11:05.270Z,36.25
2018-02-25T10:13:32.962Z,36.29
2018-02-25T10:16:00.658Z,35.34
2018-02-25T10:18:28.357Z,35.06
2018-02-25T10:20:56.051Z,35.09
2018-02-25T10:23:23.800Z,35.28
2018-02-25T10:25:51.506Z,34.57
2018-02-25T10:28:19.185Z,33.77
2018-02-25T10:30:46.887Z,34.55
2018-02-25T10:33:14.557Z,33.47
2018-02-25T10:35:42.251Z,32.42
2018-02-25T10:38:09.916Z,32.48
2018-02-25T10:40:37.612Z,32.26
2018-02-25T10:43:05.294Z,31.30
2018-02-25T10:45:32.985Z,30.29
2018-02-25T10:48:00.688Z,29.90
2018-02-25T10:50:28.419Z,29.76
2018-02-25T10:52:56.112Z,29.88
2018-02-25T10:55:23.779Z,28.66
2018-02-25T10:57:51.471Z,29.56
2018-02-25T11:00:24.891Z,28.75
2018-02-25T11:02:52.551Z,29.21
2018-02-25T11:05:20.223Z,28.79
2018-02-25T11:07:47.928Z,28.34
2018-02-25T11:10:15.674Z,28.11
2018-02-25T11:12:43.318Z,28.04
2018-02-25T11:15:11.030Z,26.65
2018-02-25T11:17:38.678Z,25.82
2018-02-25T11:20:06.415Z,25.98
2018-02-25T11:22:34.082Z,25.87
2018-02-25T11:25:01.787Z,25.21
2018-02-25T11:27:29.478Z,25.17
2018-02-25T11:29:57.170Z,24.84
2018-02-25T11:32:24.832Z,25.10
2018-02-25T11:34:52.536Z,24.79
2018-02-25T11:37:20.212Z,25.28
2018-02-25T11:39:47.899Z,24.20
2018-02-25T11:42:15.585Z,25.54
2018-02-25T11:44:43.405Z,24.58
2018-02-25T11:47:11.047Z,23.80
2018-02-25T11:49:38.745Z,23.25
2018-02-25T11:52:06.429Z,23.52
2018-02-25T11:54:34.140Z,23.49
2018-02-25T11:57:01.737Z,22.48
2018-02-25T11:59:29.366Z,21.65
2018-02-25T12:01:56.971Z,22.55
2018-02-25T12:04:24.596Z,21.95
2018-02-25T12:06:52.170Z,23.47
2018-02-25T12:09:19.795Z,23.17
2018-02-25T12:11:47.395Z,22.67
2018-02-25T12:14:15.097Z,23.35
2018-02-25T12:16:42.772Z,22.62
2018-02-25T12:19:10.421Z,21.93
2018-02-25T12:21:38.002Z,21.75
2018-02-25T12:24:05.686Z,21.22
2018-02-25T12:26:33.279Z,21.71
2018-02-25T12:29:00.930Z,21.73
2018-02-25T12:31:28.541Z,20.85
2018-02-25T12:33:56.179Z,21.48
2018-02-25T12:36:23.820Z,22.21
2018-02-25T12:38:51.500Z,21.29
2018-02-25T12:41:19.135Z,21.99
2018-02-25T12:43:46.723Z,23.47
2018-02-25T12:46:14.326Z,23.80
2018-02-25T12:48:41.974Z,22.79
2018-02-25T12:51:09.604Z,22.17
2018-02-25T12:53:37.222Z,21.74
2018-02-25T12:56:04.817Z,21.47
2018-02-25T12:58:32.450Z,21.34
2018-02-25T13:01:00.065Z,21.50
2018-02-25T13:03:27.737Z,21.60
2018-02-25T13:05:55.299Z,21.42
2018-02-25T13:08:22.910Z,21.18
2018-02-25T13:10:50.498Z,21.04
2018-02-25T13:13:18.114Z,20.40
2018-02-25T13:15:45.716Z,20.54
2018-02-25T13:18:13.339Z,21.06
2018-02-25T13:20:40.958Z,20.62
2018-02-25T13:23:08.713Z,20.94
2018-02-25T13:25:36.299Z,21.11
2018-02-25T13:28:03.931Z,21.43
2018-02-25T13:30:31.624Z,21.60
2018-02-25T13:32:59.255Z,21.28
2018-02-25T13:35:26.859Z,20.89
2018-02-25T13:37:54.499Z,20.38
2018-02-25T13:40:22.096Z,20.71
2018-02-25T13:42:49.731Z,21.43
2018-02-25T13:45:17.340Z,20.76
2018-02-25T13:47:44.955Z,20.47
2018-02-25T13:50:12.543Z,21.13
2018-02-25T13:52:40.158Z,20.44
2018-02-25T13:55:09.272Z,19.80
2018-02-25T13:57:36.979Z,20.08
2018-02-25T14:00:04.606Z,20.54
2018-02-25T14:02:32.289Z,20.72
2018-02-25T14:04:59.934Z,20.41
2018-02-25T14:07:27.547Z,19.09
2018-02-25T14:09:55.139Z,19.72
2018-02-25T14:12:22.818Z,19.24
2018-02-25T14:14:50.409Z,22.22
2018-02-25T14:17:17.994Z,23.90
2018-02-25T14:19:45.714Z,22.41
2018-02-25T14:22:13.301Z,23.81
2018-02-25T14:24:40.932Z,23.33
2018-02-25T14:27:08.545Z,22.90
2018-02-25T14:29:36.141Z,22.27
2018-02-25T14:32:03.901Z,21.28
2018-02-25T14:34:31.502Z,22.44
2018-02-25T14:36:59.107Z,24.50
2018-02-25T14:39:26.722Z,23.34
2018-02-25T14:41:54.314Z,23.47
2018-02-25T14:44:22.146Z,23.41
2018-02-25T14:46:49.783Z,23.12
2018-02-25T14:49:17.406Z,22.96
2018-02-25T14:51:44.998Z,22.63
2018-02-25T14:54:12.635Z,22.69
2018-02-25T14:56:40.250Z,22.77
2018-02-25T14:59:07.886Z,23.07
2018-02-25T15:01:35.478Z,22.86
2018-02-25T15:04:03.107Z,22.97
2018-02-25T15:06:30.719Z,23.81
2018-02-25T15:08:58.467Z,24.18
2018-02-25T15:11:26.054Z,23.96
2018-02-25T15:13:53.722Z,23.87
2018-02-25T15:16:21.414Z,24.36
2018-02-25T15:18:49.070Z,24.27
2018-02-25T15:21:16.642Z,25.07
2018-02-25T15:23:44.267Z,25.06
2018-02-25T15:26:11.861Z,25.04
2018-02-25T15:28:39.496Z,24.64
2018-02-25T15:31:07.127Z,24.96
2018-02-25T15:33:34.767Z,24.59
2018-02-25T15:36:02.372Z,24.64
2018-02-25T15:38:30.003Z,24.94
2018-02-25T15:40:57.602Z,24.82
2018-02-25T15:43:25.241Z,25.21
2018-02-25T15:45:52.842Z,25.29
2018-02-25T15:48:20.462Z,25.57
2018-02-25T15:50:48.231Z,24.99
2018-02-25T15:53:15.857Z,25.41
2018-02-25T15:55:43.436Z,25.03
2018-02-25T15:58:11.070Z,25.44
2018-02-25T16:00:38.809Z,25.05
2018-02-25T16:03:06.622Z,25.22
2018-02-25T16:05:34.219Z,25.83
2018-02-25T16:08:01.843Z,25.88
2018-02-25T16:10:29.586Z,26.03
2018-02-25T16:12:57.225Z,26.41
2018-02-25T16:15:24.804Z,26.77
2018-02-25T16:17:52.423Z,26.64
2018-02-25T16:20:20.007Z,26.21
2018-02-25T16:22:47.702Z,27.02
2018-02-25T16:25:15.314Z,27.39
2018-02-25T16:27:42.933Z,27.42
2018-02-25T16:30:10.555Z,27.63
2018-02-25T16:32:38.187Z,28.51
2018-02-25T16:35:05.867Z,29.23
2018-02-25T16:37:33.504Z,30.21
2018-02-25T16:40:01.598Z,31.37
2018-02-25T16:42:29.344Z,31.19
2018-02-25T16:44:56.959Z,31.29
2018-02-25T16:47:24.676Z,31.41
2018-02-25T16:49:52.411Z,31.64
2018-02-25T16:52:20.110Z,31.73
2018-02-25T16:54:47.777Z,32.18
2018-02-25T16:57:15.486Z,32.56
2018-02-25T16:59:43.190Z,32.77
2018-02-25T17:02:10.879Z,32.50
2018-02-25T17:04:38.582Z,32.72
2018-02-25T17:07:06.311Z,33.21
2018-02-25T17:09:33.977Z,33.54
2018-02-25T17:12:01.713Z,33.79
2018-02-25T17:14:29.467Z,33.47
2018-02-25T17:16:57.171Z,33.06
2018-02-25T17:19:24.839Z,33.40
2018-02-25T17:21:52.562Z,33.34
2018-02-25T17:24:21.168Z,33.74
2018-02-25T17:26:48.897Z,33.99
2018-02-25T17:29:16.642Z,34.18
2018-02-25T17:31:44.374Z,34.32
2018-02-25T17:34:12.075Z,35.03
2018-02-25T17:36:39.784Z,34.98
2018-02-25T17:39:07.474Z,34.88
2018-02-25T17:41:35.167Z,35.14
2018-02-25T17:44:02.883Z,35.14
2018-02-25T17:46:30.606Z,35.29
2018-02-25T17:48:58.284Z,35.43
2018-02-25T17:51:26.130Z,35.82
2018-02-25T17:53:53.792Z,35.83
2018-02-25T17:56:21.506Z,35.85
2018-02-25T17:58:49.195Z,36.40
2018-02-25T18:01:16.915Z,36.76
2018-02-25T18:03:45.635Z,37.19
2018-02-25T18:06:13.352Z,37.01
2018-02-25T18:08:41.051Z,37.18
2018-02-25T18:11:08.764Z,37.20
2018-02-25T18:13:36.435Z,37.36
2018-02-25T18:16:04.091Z,37.42
2018-02-25T18:18:31.802Z,37.18
2018-02-25T18:20:59.463Z,37.16
2018-02-25T18:23:27.174Z,37.29
2018-02-25T18:25:54.846Z,36.99
2018-02-25T18:28:22.539Z,37.20
2018-02-25T18:30:50.208Z,37.09
2018-02-25T18:33:17.899Z,37.43
2018-02-25T18:35:45.574Z,37.71
2018-02-25T18:38:13.311Z,37.96
2018-02-25T18:40:40.979Z,37.72
2018-02-25T18:43:08.685Z,37.70
2018-02-25T18:45:36.330Z,37.86
2018-02-25T18:48:04.047Z,38.17
2018-02-25T18:50:31.718Z,38.43
2018-02-25T18:52:59.423Z,38.84
2018-02-25T18:55:27.094Z,38.98
2018-02-25T18:57:54.810Z,39.00
2018-02-25T19:00:22.466Z,39.21
2018-02-25T19:02:50.172Z,39.57
2018-02-25T19:05:17.867Z,39.48
2018-02-25T19:07:45.573Z,39.42
2018-02-25T19:10:13.255Z,39.75
2018-02-25T19:12:40.962Z,39.94
2018-02-25T19:15:08.792Z,40.47
2018-02-25T19:17:36.486Z,40.80
2018-02-25T19:20:04.162Z,41.40
2018-02-25T19:22:31.882Z,41.29
2018-02-25T19:24:59.576Z,40.73
2018-02-25T19:27:27.286Z,41.15
2018-02-25T19:29:54.967Z,41.47
2018-02-25T19:32:22.692Z,41.63
2018-02-25T19:34:51.810Z,41.47
2018-02-25T19:37:25.120Z,41.40
2018-02-25T19:39:58.665Z,41.70
2018-02-25T19:42:26.435Z,41.41
2018-02-25T19:44:54.079Z,41.50
2018-02-25T19:47:21.831Z,41.29
2018-02-25T19:49:49.510Z,41.23
2018-02-25T19:52:17.204Z,41.75
2018-02-25T19:54:44.928Z,41.79
2018-02-25T19:57:12.588Z,42.32
2018-02-25T19:59:40.279Z,42.58
2018-02-25T20:02:08.064Z,43.21
2018-02-25T20:04:35.687Z,44.11
2018-02-25T20:07:03.476Z,45.19
2018-02-25T20:09:31.146Z,45.45
2018-02-25T20:11:58.880Z,46.14
2018-02-25T20:14:26.593Z,47.13
2018-02-25T20:16:54.314Z,47.35
2018-02-25T20:19:21.981Z,47.35
2018-02-25T20:21:49.689Z,47.72
2018-02-25T20:24:17.356Z,48.29
2018-02-25T20:26:45.052Z,48.77
2018-02-25T20:29:12.747Z,49.17
2018-02-25T20:31:40.480Z,49.25
2018-02-25T20:34:08.142Z,49.29
2018-02-25T20:36:35.955Z,50.10
2018-02-25T20:39:03.642Z,50.41
2018-02-25T20:41:31.334Z,50.29
2018-02-25T20:43:59.028Z,49.92
2018-02-25T20:46:26.740Z,50.05
2018-02-25T20:48:54.419Z,49.96
2018-02-25T20:51:22.090Z,50.17
2018-02-25T20:53:49.790Z,50.13
2018-02-25T20:56:17.454Z,50.35
2018-02-25T20:58:45.164Z,50.17
2018-02-25T21:01:12.858Z,49.91
2018-02-25T21:03:40.746Z,49.90
2018-02-25T21:06:08.451Z,49.48
2018-02-25T21:08:36.115Z,49.63
2018-02-25T21:11:03.830Z,49.08
2018-02-25T21:13:31.502Z,49.17
2018-02-25T21:15:59.200Z,49.60
2018-02-25T21:18:26.863Z,49.39
2018-02-25T21:20:54.685Z,49.02
2018-02-25T21:23:22.370Z,48.81
2018-02-25T21:25:50.081Z,48.65
2018-02-25T21:28:17.774Z,48.90
2018-02-25T21:30:45.466Z,48.10
2018-02-25T21:33:13.312Z,48.31
2018-02-25T21:35:41.068Z,48.56
2018-02-25T21:38:08.718Z,48.75
2018-02-25T21:40:36.431Z,48.99
2018-02-25T21:43:04.130Z,49.04
2018-02-25T21:45:31.822Z,49.01
2018-02-25T21:47:59.508Z,49.29
2018-02-25T21:50:27.220Z,49.50
2018-02-25T21:52:54.883Z,49.51
2018-02-25T21:55:22.566Z,49.66
2018-02-25T21:57:55.767Z,50.15
2018-02-25T22:00:29.102Z,50.49
2018-02-25T22:03:02.151Z,50.53
2018-02-25T22:05:29.840Z,50.27
2018-02-25T22:07:57.505Z,50.33
2018-02-25T22:10:25.194Z,50.41
2018-02-25T22:12:52.866Z,50.63
2018-02-25T22:15:20.518Z,50.85
2018-02-25T22:17:48.227Z,50.97
2018-02-25T22:20:15.878Z,50.92
2018-02-25T22:22:43.588Z,51.50
2018-02-25T22:25:11.277Z,51.86
2018-02-25T22:27:39.100Z,52.14
2018-02-25T22:30:06.722Z,52.42
2018-02-25T22:32:34.430Z,52.56
2018-02-25T22:35:02.098Z,52.49
2018-02-25T22:37:29.818Z,52.42
2018-02-25T22:39:57.582Z,52.75
2018-02-25T22:42:25.272Z,52.90
2018-02-25T22:44:52.935Z,53.00
2018-02-25T22:47:20.624Z,52.70
2018-02-25T22:49:48.274Z,52.40
2018-02-25T22:52:16.015Z,52.92
2018-02-25T22:54:43.691Z,53.16
2018-02-25T22:57:11.466Z,53.12
2018-02-25T22:59:39.138Z,53.39
2018-02-25T23:02:06.826Z,54.09
2018-02-25T23:04:34.482Z,54.25
2018-02-25T23:07:02.174Z,55.16
2018-02-25T23:09:29.838Z,56.05
2018-02-25T23:11:57.531Z,56.36
2018-02-25T23:14:25.287Z,56.50
2018-02-25T23:16:52.953Z,56.82
2018-02-25T23:19:20.704Z,56.75
2018-02-25T23:21:48.372Z,56.37
2018-02-25T23:24:16.222Z,56.46
2018-02-25T23:26:43.914Z,56.79
2018-02-25T23:29:11.585Z,56.70
2018-02-25T23:31:39.282Z,56.57
2018-02-25T23:34:07.103Z,56.05
2018-02-25T23:36:34.790Z,56.36
2018-02-25T23:39:02.493Z,56.37
2018-02-25T23:41:30.209Z,55.95
2018-02-25T23:43:57.877Z,55.56
2018-02-25T23:46:25.591Z,55.56
2018-02-25T23:48:53.264Z,55.41
2018-02-25T23:51:20.967Z,55.82
2018-02-25T23:53:48.630Z,55.87
2018-02-25T23:56:16.345Z,56.25
2018-02-25T23:58:44.027Z,56.57
